sensor_id;sensor_type;location;lat;lon;timestamp;P1;durP1;ratioP1;P2;durP2;ratioP2
16522;SDS011;19889;52.546;13.348;2023-03-11T00:01:22;16.80;;;10.43;;
16522;SDS011;19889;52.546;13.348;2023-03-11T00:03:50;27.13;;;17.30;;
16522;SDS011;19889;52.546;13.348;2023-03-11T00:06:17;17.77;;;11.73;;
16522;SDS011;19889;52.546;13.348;2023-03-11T00:08:44;20.23;;;9.97;;
16522;SDS011;19889;52.546;13.348;2023-03-11T00:11:12;17.03;;;9.90;;
16522;SDS011;19889;52.546;13.348;2023-03-11T00:13:39;16.20;;;9.17;;
16522;SDS011;19889;52.546;13.348;2023-03-11T00:16:06;14.53;;;8.90;;
16522;SDS011;19889;52.546;13.348;2023-03-11T00:18:33;15.97;;;8.83;;
16522;SDS011;19889;52.546;13.348;2023-03-11T00:21:00;17.77;;;9.60;;
16522;SDS011;19889;52.546;13.348;2023-03-11T00:23:27;12.77;;;9.03;;
16522;SDS011;19889;52.546;13.348;2023-03-11T00:25:55;13.23;;;7.80;;
16522;SDS011;19889;52.546;13.348;2023-03-11T00:28:25;11.50;;;8.17;;
16522;SDS011;19889;52.546;13.348;2023-03-11T00:30:52;12.43;;;8.70;;
16522;SDS011;19889;52.546;13.348;2023-03-11T00:33:19;21.77;;;12.00;;
16522;SDS011;19889;52.546;13.348;2023-03-11T00:35:46;17.93;;;10.83;;
16522;SDS011;19889;52.546;13.348;2023-03-11T00:38:15;14.10;;;8.60;;
16522;SDS011;19889;52.546;13.348;2023-03-11T00:40:43;11.70;;;7.60;;
16522;SDS011;19889;52.546;13.348;2023-03-11T00:43:11;12.20;;;8.10;;
16522;SDS011;19889;52.546;13.348;2023-03-11T00:45:40;13.50;;;8.67;;
16522;SDS011;19889;52.546;13.348;2023-03-11T00:48:07;12.23;;;8.50;;
16522;SDS011;19889;52.546;13.348;2023-03-11T00:50:35;14.13;;;8.93;;
16522;SDS011;19889;52.546;13.348;2023-03-11T00:53:03;12.63;;;8.87;;
16522;SDS011;19889;52.546;13.348;2023-03-11T00:55:31;11.07;;;7.87;;
16522;SDS011;19889;52.546;13.348;2023-03-11T00:58:01;13.90;;;9.53;;
16522;SDS011;19889;52.546;13.348;2023-03-11T01:00:37;12.13;;;9.00;;
16522;SDS011;19889;52.546;13.348;2023-03-11T01:03:06;11.47;;;8.90;;
16522;SDS011;19889;52.546;13.348;2023-03-11T01:05:34;11.40;;;8.13;;
16522;SDS011;19889;52.546;13.348;2023-03-11T01:08:01;14.53;;;9.73;;
16522;SDS011;19889;52.546;13.348;2023-03-11T01:10:29;14.03;;;9.73;;
16522;SDS011;19889;52.546;13.348;2023-03-11T01:12:57;15.33;;;10.60;;
16522;SDS011;19889;52.546;13.348;2023-03-11T01:15:26;13.30;;;9.57;;
16522;SDS011;19889;52.546;13.348;2023-03-11T01:17:58;15.90;;;9.30;;
16522;SDS011;19889;52.546;13.348;2023-03-11T01:20:26;15.77;;;10.00;;
16522;SDS011;19889;52.546;13.348;2023-03-11T01:22:53;13.67;;;9.23;;
16522;SDS011;19889;52.546;13.348;2023-03-11T01:25:20;13.57;;;9.83;;
16522;SDS011;19889;52.546;13.348;2023-03-11T01:27:49;13.27;;;9.47;;
16522;SDS011;19889;52.546;13.348;2023-03-11T01:30:17;12.50;;;8.47;;
16522;SDS011;19889;52.546;13.348;2023-03-11T01:32:45;11.10;;;7.90;;
16522;SDS011;19889;52.546;13.348;2023-03-11T01:35:14;9.73;;;7.03;;
16522;SDS011;19889;52.546;13.348;2023-03-11T01:37:42;11.23;;;7.47;;
16522;SDS011;19889;52.546;13.348;2023-03-11T01:40:12;11.73;;;6.90;;
16522;SDS011;19889;52.546;13.348;2023-03-11T01:42:42;6.90;;;5.30;;
16522;SDS011;19889;52.546;13.348;2023-03-11T01:45:23;6.47;;;4.80;;
16522;SDS011;19889;52.546;13.348;2023-03-11T01:47:58;5.90;;;4.50;;
16522;SDS011;19889;52.546;13.348;2023-03-11T01:50:29;4.97;;;3.80;;
16522;SDS011;19889;52.546;13.348;2023-03-11T01:53:00;4.47;;;3.60;;
16522;SDS011;19889;52.546;13.348;2023-03-11T01:55:27;6.13;;;3.90;;
16522;SDS011;19889;52.546;13.348;2023-03-11T01:57:56;4.50;;;3.17;;
16522;SDS011;19889;52.546;13.348;2023-03-11T02:00:24;3.73;;;2.70;;
16522;SDS011;19889;52.546;13.348;2023-03-11T02:02:52;2.33;;;2.10;;
16522;SDS011;19889;52.546;13.348;2023-03-11T02:05:23;2.10;;;1.90;;
16522;SDS011;19889;52.546;13.348;2023-03-11T02:07:52;3.10;;;2.17;;
16522;SDS011;19889;52.546;13.348;2023-03-11T02:10:24;1.80;;;1.70;;
16522;SDS011;19889;52.546;13.348;2023-03-11T02:12:52;2.63;;;1.97;;
16522;SDS011;19889;52.546;13.348;2023-03-11T02:15:23;3.10;;;2.50;;
16522;SDS011;19889;52.546;13.348;2023-03-11T02:17:51;2.17;;;1.80;;
16522;SDS011;19889;52.546;13.348;2023-03-11T02:20:26;1.70;;;1.60;;
16522;SDS011;19889;52.546;13.348;2023-03-11T02:23:09;2.77;;;2.10;;
16522;SDS011;19889;52.546;13.348;2023-03-11T02:25:38;2.37;;;2.13;;
16522;SDS011;19889;52.546;13.348;2023-03-11T02:28:11;2.00;;;1.80;;
16522;SDS011;19889;52.546;13.348;2023-03-11T02:30:41;2.03;;;1.70;;
16522;SDS011;19889;52.546;13.348;2023-03-11T02:33:10;2.17;;;1.90;;
16522;SDS011;19889;52.546;13.348;2023-03-11T02:35:39;2.43;;;1.90;;
16522;SDS011;19889;52.546;13.348;2023-03-11T02:38:06;2.33;;;1.50;;
16522;SDS011;19889;52.546;13.348;2023-03-11T02:40:38;2.13;;;1.80;;
16522;SDS011;19889;52.546;13.348;2023-03-11T02:43:14;2.53;;;2.07;;
16522;SDS011;19889;52.546;13.348;2023-03-11T02:45:44;2.07;;;1.90;;
16522;SDS011;19889;52.546;13.348;2023-03-11T02:48:13;2.90;;;2.00;;
16522;SDS011;19889;52.546;13.348;2023-03-11T02:50:42;2.20;;;2.00;;
16522;SDS011;19889;52.546;13.348;2023-03-11T02:53:12;2.03;;;1.80;;
16522;SDS011;19889;52.546;13.348;2023-03-11T02:55:40;2.40;;;2.03;;
16522;SDS011;19889;52.546;13.348;2023-03-11T02:58:07;2.43;;;2.13;;
16522;SDS011;19889;52.546;13.348;2023-03-11T03:00:35;3.27;;;2.10;;
16522;SDS011;19889;52.546;13.348;2023-03-11T03:03:05;2.27;;;2.07;;
16522;SDS011;19889;52.546;13.348;2023-03-11T03:05:33;2.33;;;2.10;;
16522;SDS011;19889;52.546;13.348;2023-03-11T03:08:00;2.00;;;1.80;;
16522;SDS011;19889;52.546;13.348;2023-03-11T03:10:28;2.37;;;2.13;;
16522;SDS011;19889;52.546;13.348;2023-03-11T03:12:56;2.53;;;2.30;;
16522;SDS011;19889;52.546;13.348;2023-03-11T03:15:23;2.90;;;2.33;;
16522;SDS011;19889;52.546;13.348;2023-03-11T03:17:52;4.23;;;2.93;;
16522;SDS011;19889;52.546;13.348;2023-03-11T03:20:19;4.40;;;3.40;;
16522;SDS011;19889;52.546;13.348;2023-03-11T03:22:49;5.43;;;3.00;;
16522;SDS011;19889;52.546;13.348;2023-03-11T03:25:19;5.40;;;3.40;;
16522;SDS011;19889;52.546;13.348;2023-03-11T03:27:47;3.60;;;2.50;;
16522;SDS011;19889;52.546;13.348;2023-03-11T03:30:14;3.70;;;2.83;;
16522;SDS011;19889;52.546;13.348;2023-03-11T03:32:42;4.57;;;2.93;;
16522;SDS011;19889;52.546;13.348;2023-03-11T03:35:14;3.53;;;2.73;;
16522;SDS011;19889;52.546;13.348;2023-03-11T03:38:03;3.80;;;2.83;;
16522;SDS011;19889;52.546;13.348;2023-03-11T03:40:31;3.03;;;2.53;;
16522;SDS011;19889;52.546;13.348;2023-03-11T03:43:01;3.50;;;2.93;;
16522;SDS011;19889;52.546;13.348;2023-03-11T03:45:29;3.10;;;2.80;;
16522;SDS011;19889;52.546;13.348;2023-03-11T03:47:56;5.03;;;3.70;;
16522;SDS011;19889;52.546;13.348;2023-03-11T03:50:43;3.40;;;2.93;;
16522;SDS011;19889;52.546;13.348;2023-03-11T03:53:33;3.03;;;2.60;;
16522;SDS011;19889;52.546;13.348;2023-03-11T03:56:02;4.00;;;3.00;;
16522;SDS011;19889;52.546;13.348;2023-03-11T03:58:31;4.53;;;3.30;;
16522;SDS011;19889;52.546;13.348;2023-03-11T04:00:59;4.50;;;3.07;;
16522;SDS011;19889;52.546;13.348;2023-03-11T04:03:26;4.80;;;2.80;;
16522;SDS011;19889;52.546;13.348;2023-03-11T04:06:07;5.30;;;3.63;;
16522;SDS011;19889;52.546;13.348;2023-03-11T04:08:35;3.93;;;3.07;;
16522;SDS011;19889;52.546;13.348;2023-03-11T04:11:05;4.33;;;3.30;;
16522;SDS011;19889;52.546;13.348;2023-03-11T04:13:34;3.97;;;2.97;;
16522;SDS011;19889;52.546;13.348;2023-03-11T04:16:01;4.17;;;3.67;;
16522;SDS011;19889;52.546;13.348;2023-03-11T04:18:29;6.00;;;3.03;;
16522;SDS011;19889;52.546;13.348;2023-03-11T04:20:56;4.67;;;3.07;;
16522;SDS011;19889;52.546;13.348;2023-03-11T04:23:25;3.47;;;3.07;;
16522;SDS011;19889;52.546;13.348;2023-03-11T04:25:52;4.33;;;3.17;;
16522;SDS011;19889;52.546;13.348;2023-03-11T04:28:20;5.63;;;2.80;;
16522;SDS011;19889;52.546;13.348;2023-03-11T04:30:47;3.47;;;3.17;;
16522;SDS011;19889;52.546;13.348;2023-03-11T04:33:14;4.57;;;3.07;;
16522;SDS011;19889;52.546;13.348;2023-03-11T04:35:41;5.20;;;3.00;;
16522;SDS011;19889;52.546;13.348;2023-03-11T04:38:08;4.43;;;3.27;;
16522;SDS011;19889;52.546;13.348;2023-03-11T04:40:36;4.23;;;3.10;;
16522;SDS011;19889;52.546;13.348;2023-03-11T04:43:04;3.80;;;2.57;;
16522;SDS011;19889;52.546;13.348;2023-03-11T04:45:32;3.50;;;2.60;;
16522;SDS011;19889;52.546;13.348;2023-03-11T04:48:01;3.83;;;3.20;;
16522;SDS011;19889;52.546;13.348;2023-03-11T04:50:30;6.40;;;2.87;;
16522;SDS011;19889;52.546;13.348;2023-03-11T04:52:57;5.07;;;2.90;;
16522;SDS011;19889;52.546;13.348;2023-03-11T04:55:24;3.07;;;2.70;;
16522;SDS011;19889;52.546;13.348;2023-03-11T04:57:53;3.30;;;2.80;;
16522;SDS011;19889;52.546;13.348;2023-03-11T05:00:21;2.90;;;2.60;;
16522;SDS011;19889;52.546;13.348;2023-03-11T05:02:56;2.57;;;2.13;;
16522;SDS011;19889;52.546;13.348;2023-03-11T05:05:23;4.17;;;2.93;;
16522;SDS011;19889;52.546;13.348;2023-03-11T05:07:50;2.80;;;2.27;;
16522;SDS011;19889;52.546;13.348;2023-03-11T05:10:17;4.33;;;3.00;;
16522;SDS011;19889;52.546;13.348;2023-03-11T05:12:47;2.90;;;2.33;;
16522;SDS011;19889;52.546;13.348;2023-03-11T05:15:16;3.13;;;2.50;;
16522;SDS011;19889;52.546;13.348;2023-03-11T05:17:44;2.93;;;2.57;;
16522;SDS011;19889;52.546;13.348;2023-03-11T05:20:12;4.03;;;2.47;;
16522;SDS011;19889;52.546;13.348;2023-03-11T05:22:39;3.43;;;2.37;;
16522;SDS011;19889;52.546;13.348;2023-03-11T05:25:07;3.07;;;2.57;;
16522;SDS011;19889;52.546;13.348;2023-03-11T05:27:36;2.77;;;2.30;;
16522;SDS011;19889;52.546;13.348;2023-03-11T05:30:05;2.60;;;2.13;;
16522;SDS011;19889;52.546;13.348;2023-03-11T05:32:36;2.73;;;2.23;;
16522;SDS011;19889;52.546;13.348;2023-03-11T05:35:05;3.30;;;2.50;;
16522;SDS011;19889;52.546;13.348;2023-03-11T05:37:33;2.90;;;2.60;;
16522;SDS011;19889;52.546;13.348;2023-03-11T05:40:03;2.93;;;2.60;;
16522;SDS011;19889;52.546;13.348;2023-03-11T05:42:35;3.33;;;2.27;;
16522;SDS011;19889;52.546;13.348;2023-03-11T05:45:05;6.13;;;2.90;;
16522;SDS011;19889;52.546;13.348;2023-03-11T05:47:33;3.70;;;2.50;;
16522;SDS011;19889;52.546;13.348;2023-03-11T05:50:01;6.43;;;2.60;;
16522;SDS011;19889;52.546;13.348;2023-03-11T05:52:29;5.83;;;3.57;;
16522;SDS011;19889;52.546;13.348;2023-03-11T05:54:58;4.30;;;3.10;;
16522;SDS011;19889;52.546;13.348;2023-03-11T05:57:27;4.07;;;3.07;;
16522;SDS011;19889;52.546;13.348;2023-03-11T05:59:55;5.33;;;3.07;;
16522;SDS011;19889;52.546;13.348;2023-03-11T06:02:23;2.90;;;2.60;;
16522;SDS011;19889;52.546;13.348;2023-03-11T06:04:53;4.53;;;3.10;;
16522;SDS011;19889;52.546;13.348;2023-03-11T06:07:21;4.43;;;3.00;;
16522;SDS011;19889;52.546;13.348;2023-03-11T06:09:48;3.73;;;2.93;;
16522;SDS011;19889;52.546;13.348;2023-03-11T06:12:17;3.87;;;3.10;;
16522;SDS011;19889;52.546;13.348;2023-03-11T06:15:10;6.23;;;4.57;;
16522;SDS011;19889;52.546;13.348;2023-03-11T06:17:38;5.60;;;3.80;;
16522;SDS011;19889;52.546;13.348;2023-03-11T06:20:06;5.20;;;4.17;;
16522;SDS011;19889;52.546;13.348;2023-03-11T06:22:36;4.23;;;3.83;;
16522;SDS011;19889;52.546;13.348;2023-03-11T06:25:04;7.43;;;4.50;;
16522;SDS011;19889;52.546;13.348;2023-03-11T06:27:32;7.37;;;5.00;;
16522;SDS011;19889;52.546;13.348;2023-03-11T06:29:59;7.50;;;5.03;;
16522;SDS011;19889;52.546;13.348;2023-03-11T06:32:28;8.93;;;4.77;;
16522;SDS011;19889;52.546;13.348;2023-03-11T06:34:55;5.53;;;3.83;;
16522;SDS011;19889;52.546;13.348;2023-03-11T06:37:22;4.40;;;3.57;;
16522;SDS011;19889;52.546;13.348;2023-03-11T06:39:52;8.27;;;5.97;;
16522;SDS011;19889;52.546;13.348;2023-03-11T06:42:21;5.97;;;3.70;;
16522;SDS011;19889;52.546;13.348;2023-03-11T06:44:50;6.57;;;3.90;;
16522;SDS011;19889;52.546;13.348;2023-03-11T06:47:17;6.40;;;3.67;;
16522;SDS011;19889;52.546;13.348;2023-03-11T06:49:44;6.73;;;4.90;;
16522;SDS011;19889;52.546;13.348;2023-03-11T06:52:11;5.33;;;3.80;;
16522;SDS011;19889;52.546;13.348;2023-03-11T06:54:38;5.80;;;4.43;;
16522;SDS011;19889;52.546;13.348;2023-03-11T06:57:07;5.37;;;3.73;;
16522;SDS011;19889;52.546;13.348;2023-03-11T06:59:35;6.63;;;4.77;;
16522;SDS011;19889;52.546;13.348;2023-03-11T07:02:03;7.40;;;4.43;;
16522;SDS011;19889;52.546;13.348;2023-03-11T07:04:31;6.20;;;4.07;;
16522;SDS011;19889;52.546;13.348;2023-03-11T07:06:58;5.37;;;4.40;;
16522;SDS011;19889;52.546;13.348;2023-03-11T07:09:25;5.97;;;4.53;;
16522;SDS011;19889;52.546;13.348;2023-03-11T07:11:54;6.73;;;4.17;;
16522;SDS011;19889;52.546;13.348;2023-03-11T07:14:29;10.30;;;5.13;;
16522;SDS011;19889;52.546;13.348;2023-03-11T07:16:56;9.60;;;5.07;;
16522;SDS011;19889;52.546;13.348;2023-03-11T07:19:31;5.67;;;4.80;;
16522;SDS011;19889;52.546;13.348;2023-03-11T07:21:58;7.50;;;5.07;;
16522;SDS011;19889;52.546;13.348;2023-03-11T07:24:25;8.57;;;4.17;;
16522;SDS011;19889;52.546;13.348;2023-03-11T07:26:52;6.40;;;4.90;;
16522;SDS011;19889;52.546;13.348;2023-03-11T07:29:19;7.83;;;4.90;;
16522;SDS011;19889;52.546;13.348;2023-03-11T07:31:47;8.77;;;5.03;;
16522;SDS011;19889;52.546;13.348;2023-03-11T07:34:14;6.10;;;4.73;;
16522;SDS011;19889;52.546;13.348;2023-03-11T07:36:41;7.83;;;5.70;;
16522;SDS011;19889;52.546;13.348;2023-03-11T07:39:09;9.27;;;5.63;;
16522;SDS011;19889;52.546;13.348;2023-03-11T07:41:40;7.53;;;5.20;;
16522;SDS011;19889;52.546;13.348;2023-03-11T07:44:07;7.23;;;5.07;;
16522;SDS011;19889;52.546;13.348;2023-03-11T07:46:36;8.03;;;4.77;;
16522;SDS011;19889;52.546;13.348;2023-03-11T07:49:05;8.83;;;5.87;;
16522;SDS011;19889;52.546;13.348;2023-03-11T07:51:34;9.53;;;5.27;;
16522;SDS011;19889;52.546;13.348;2023-03-11T07:54:02;7.73;;;5.20;;
16522;SDS011;19889;52.546;13.348;2023-03-11T07:56:30;7.07;;;5.53;;
16522;SDS011;19889;52.546;13.348;2023-03-11T07:58:58;6.43;;;5.50;;
16522;SDS011;19889;52.546;13.348;2023-03-11T08:01:27;7.67;;;5.70;;
16522;SDS011;19889;52.546;13.348;2023-03-11T08:04:00;10.63;;;5.40;;
16522;SDS011;19889;52.546;13.348;2023-03-11T08:06:31;7.50;;;5.37;;
16522;SDS011;19889;52.546;13.348;2023-03-11T08:09:00;9.13;;;5.73;;
16522;SDS011;19889;52.546;13.348;2023-03-11T08:11:28;8.10;;;5.90;;
16522;SDS011;19889;52.546;13.348;2023-03-11T08:13:56;9.70;;;6.10;;
16522;SDS011;19889;52.546;13.348;2023-03-11T08:16:23;12.50;;;6.67;;
16522;SDS011;19889;52.546;13.348;2023-03-11T08:18:51;8.07;;;6.50;;
16522;SDS011;19889;52.546;13.348;2023-03-11T08:21:19;8.40;;;5.90;;
16522;SDS011;19889;52.546;13.348;2023-03-11T08:23:49;6.73;;;5.67;;
16522;SDS011;19889;52.546;13.348;2023-03-11T08:26:17;9.57;;;5.80;;
16522;SDS011;19889;52.546;13.348;2023-03-11T08:28:47;6.20;;;4.83;;
16522;SDS011;19889;52.546;13.348;2023-03-11T08:31:14;7.17;;;6.00;;
16522;SDS011;19889;52.546;13.348;2023-03-11T08:33:44;6.17;;;5.00;;
16522;SDS011;19889;52.546;13.348;2023-03-11T08:36:14;9.27;;;5.87;;
16522;SDS011;19889;52.546;13.348;2023-03-11T08:38:41;9.53;;;5.87;;
16522;SDS011;19889;52.546;13.348;2023-03-11T08:41:09;9.23;;;5.97;;
16522;SDS011;19889;52.546;13.348;2023-03-11T08:43:36;6.97;;;5.70;;
16522;SDS011;19889;52.546;13.348;2023-03-11T08:46:04;7.87;;;5.60;;
16522;SDS011;19889;52.546;13.348;2023-03-11T08:48:31;10.87;;;6.10;;
16522;SDS011;19889;52.546;13.348;2023-03-11T08:50:59;6.73;;;6.03;;
16522;SDS011;19889;52.546;13.348;2023-03-11T08:53:27;7.33;;;5.60;;
16522;SDS011;19889;52.546;13.348;2023-03-11T08:55:54;5.90;;;4.60;;
16522;SDS011;19889;52.546;13.348;2023-03-11T08:58:22;8.63;;;5.97;;
16522;SDS011;19889;52.546;13.348;2023-03-11T09:00:49;7.80;;;5.60;;
16522;SDS011;19889;52.546;13.348;2023-03-11T09:03:16;6.30;;;4.90;;
16522;SDS011;19889;52.546;13.348;2023-03-11T09:05:43;6.50;;;4.93;;
16522;SDS011;19889;52.546;13.348;2023-03-11T09:08:10;7.53;;;5.70;;
16522;SDS011;19889;52.546;13.348;2023-03-11T09:10:37;7.60;;;5.47;;
16522;SDS011;19889;52.546;13.348;2023-03-11T09:13:04;9.60;;;5.57;;
16522;SDS011;19889;52.546;13.348;2023-03-11T09:15:32;8.47;;;5.73;;
16522;SDS011;19889;52.546;13.348;2023-03-11T09:18:00;7.30;;;5.43;;
16522;SDS011;19889;52.546;13.348;2023-03-11T09:20:27;9.97;;;5.70;;
16522;SDS011;19889;52.546;13.348;2023-03-11T09:22:54;7.83;;;5.40;;
16522;SDS011;19889;52.546;13.348;2023-03-11T09:25:21;7.23;;;5.83;;
16522;SDS011;19889;52.546;13.348;2023-03-11T09:27:48;8.10;;;5.43;;
16522;SDS011;19889;52.546;13.348;2023-03-11T09:30:15;6.53;;;5.43;;
16522;SDS011;19889;52.546;13.348;2023-03-11T09:32:44;11.60;;;6.17;;
16522;SDS011;19889;52.546;13.348;2023-03-11T09:35:11;8.67;;;5.40;;
16522;SDS011;19889;52.546;13.348;2023-03-11T09:37:38;7.17;;;5.43;;
16522;SDS011;19889;52.546;13.348;2023-03-11T09:40:06;9.67;;;5.73;;
16522;SDS011;19889;52.546;13.348;2023-03-11T09:42:36;8.40;;;5.67;;
16522;SDS011;19889;52.546;13.348;2023-03-11T09:45:10;8.23;;;6.13;;
16522;SDS011;19889;52.546;13.348;2023-03-11T09:47:46;9.97;;;6.20;;
16522;SDS011;19889;52.546;13.348;2023-03-11T09:50:25;6.50;;;5.53;;
16522;SDS011;19889;52.546;13.348;2023-03-11T09:53:08;8.90;;;5.53;;
16522;SDS011;19889;52.546;13.348;2023-03-11T09:55:43;6.47;;;5.37;;
16522;SDS011;19889;52.546;13.348;2023-03-11T09:58:13;8.00;;;5.33;;
16522;SDS011;19889;52.546;13.348;2023-03-11T10:00:44;7.80;;;5.73;;
16522;SDS011;19889;52.546;13.348;2023-03-11T10:06:15;7.80;;;5.33;;
16522;SDS011;19889;52.546;13.348;2023-03-11T10:08:46;7.83;;;6.00;;
16522;SDS011;19889;52.546;13.348;2023-03-11T10:11:26;8.07;;;5.63;;
16522;SDS011;19889;52.546;13.348;2023-03-11T10:14:05;7.07;;;5.43;;
16522;SDS011;19889;52.546;13.348;2023-03-11T10:16:40;8.00;;;6.13;;
16522;SDS011;19889;52.546;13.348;2023-03-11T10:19:16;9.07;;;6.40;;
16522;SDS011;19889;52.546;13.348;2023-03-11T10:21:52;9.60;;;6.43;;
16522;SDS011;19889;52.546;13.348;2023-03-11T10:24:35;14.40;;;6.83;;
16522;SDS011;19889;52.546;13.348;2023-03-11T10:27:12;8.00;;;5.43;;
16522;SDS011;19889;52.546;13.348;2023-03-11T10:29:44;9.07;;;6.13;;
16522;SDS011;19889;52.546;13.348;2023-03-11T10:32:19;12.50;;;7.17;;
16522;SDS011;19889;52.546;13.348;2023-03-11T10:34:52;7.53;;;6.47;;
16522;SDS011;19889;52.546;13.348;2023-03-11T10:37:24;9.27;;;6.67;;
16522;SDS011;19889;52.546;13.348;2023-03-11T10:39:53;10.43;;;7.47;;
16522;SDS011;19889;52.546;13.348;2023-03-11T10:42:20;12.23;;;7.17;;
16522;SDS011;19889;52.546;13.348;2023-03-11T10:44:50;9.37;;;6.57;;
16522;SDS011;19889;52.546;13.348;2023-03-11T10:47:17;12.20;;;7.73;;
16522;SDS011;19889;52.546;13.348;2023-03-11T10:49:45;10.43;;;7.27;;
16522;SDS011;19889;52.546;13.348;2023-03-11T10:52:14;11.17;;;7.50;;
16522;SDS011;19889;52.546;13.348;2023-03-11T10:54:41;10.20;;;7.37;;
16522;SDS011;19889;52.546;13.348;2023-03-11T10:57:21;10.03;;;7.63;;
16522;SDS011;19889;52.546;13.348;2023-03-11T10:59:50;10.87;;;7.37;;
16522;SDS011;19889;52.546;13.348;2023-03-11T11:02:22;8.73;;;6.43;;
16522;SDS011;19889;52.546;13.348;2023-03-11T11:05:03;11.23;;;7.83;;
16522;SDS011;19889;52.546;13.348;2023-03-11T11:07:36;10.20;;;7.47;;
16522;SDS011;19889;52.546;13.348;2023-03-11T11:12:54;11.30;;;8.20;;
16522;SDS011;19889;52.546;13.348;2023-03-11T11:15:24;10.80;;;8.03;;
16522;SDS011;19889;52.546;13.348;2023-03-11T11:17:52;12.80;;;7.87;;
16522;SDS011;19889;52.546;13.348;2023-03-11T11:20:22;14.10;;;8.70;;
16522;SDS011;19889;52.546;13.348;2023-03-11T11:22:52;14.10;;;8.97;;
16522;SDS011;19889;52.546;13.348;2023-03-11T11:25:25;11.90;;;8.13;;
16522;SDS011;19889;52.546;13.348;2023-03-11T11:27:55;11.53;;;8.83;;
16522;SDS011;19889;52.546;13.348;2023-03-11T11:30:23;11.97;;;8.63;;
16522;SDS011;19889;52.546;13.348;2023-03-11T11:32:50;11.57;;;9.17;;
16522;SDS011;19889;52.546;13.348;2023-03-11T11:35:20;13.73;;;9.27;;
16522;SDS011;19889;52.546;13.348;2023-03-11T11:37:49;14.20;;;9.10;;
16522;SDS011;19889;52.546;13.348;2023-03-11T11:40:23;12.70;;;9.03;;
16522;SDS011;19889;52.546;13.348;2023-03-11T11:42:54;15.17;;;9.63;;
16522;SDS011;19889;52.546;13.348;2023-03-11T11:45:25;18.20;;;11.20;;
16522;SDS011;19889;52.546;13.348;2023-03-11T11:47:57;13.83;;;9.97;;
16522;SDS011;19889;52.546;13.348;2023-03-11T11:50:30;14.17;;;9.70;;
16522;SDS011;19889;52.546;13.348;2023-03-11T11:53:07;13.73;;;9.33;;
16522;SDS011;19889;52.546;13.348;2023-03-11T11:55:42;13.27;;;9.30;;
16522;SDS011;19889;52.546;13.348;2023-03-11T11:58:13;14.00;;;9.77;;
16522;SDS011;19889;52.546;13.348;2023-03-11T12:00:42;15.50;;;9.57;;
16522;SDS011;19889;52.546;13.348;2023-03-11T12:03:25;13.03;;;8.83;;
16522;SDS011;19889;52.546;13.348;2023-03-11T12:06:06;13.23;;;9.80;;
16522;SDS011;19889;52.546;13.348;2023-03-11T12:08:45;11.97;;;9.27;;
16522;SDS011;19889;52.546;13.348;2023-03-11T12:11:20;12.80;;;8.97;;
16522;SDS011;19889;52.546;13.348;2023-03-11T12:13:56;11.83;;;8.67;;
16522;SDS011;19889;52.546;13.348;2023-03-11T12:16:30;12.03;;;8.20;;
16522;SDS011;19889;52.546;13.348;2023-03-11T12:19:09;11.23;;;8.90;;
16522;SDS011;19889;52.546;13.348;2023-03-11T12:25:02;11.87;;;8.63;;
16522;SDS011;19889;52.546;13.348;2023-03-11T12:27:40;10.30;;;7.73;;
16522;SDS011;19889;52.546;13.348;2023-03-11T12:30:12;13.10;;;9.20;;
16522;SDS011;19889;52.546;13.348;2023-03-11T12:32:46;11.13;;;8.03;;
16522;SDS011;19889;52.546;13.348;2023-03-11T12:35:19;9.90;;;7.00;;
16522;SDS011;19889;52.546;13.348;2023-03-11T12:38:00;10.77;;;8.37;;
16522;SDS011;19889;52.546;13.348;2023-03-11T12:40:41;9.13;;;7.27;;
16522;SDS011;19889;52.546;13.348;2023-03-11T12:43:23;10.07;;;7.90;;
16522;SDS011;19889;52.546;13.348;2023-03-11T12:46:14;11.00;;;8.10;;
16522;SDS011;19889;52.546;13.348;2023-03-11T12:48:42;10.97;;;8.10;;
16522;SDS011;19889;52.546;13.348;2023-03-11T12:54:25;9.87;;;7.50;;
16522;SDS011;19889;52.546;13.348;2023-03-11T12:56:56;10.10;;;6.97;;
16522;SDS011;19889;52.546;13.348;2023-03-11T12:59:43;9.93;;;7.50;;
16522;SDS011;19889;52.546;13.348;2023-03-11T13:05:46;9.60;;;7.47;;
16522;SDS011;19889;52.546;13.348;2023-03-11T13:08:20;11.27;;;7.30;;
16522;SDS011;19889;52.546;13.348;2023-03-11T13:10:50;8.67;;;7.07;;
16522;SDS011;19889;52.546;13.348;2023-03-11T13:13:29;9.33;;;7.23;;
16522;SDS011;19889;52.546;13.348;2023-03-11T13:25:25;10.13;;;7.13;;
16522;SDS011;19889;52.546;13.348;2023-03-11T13:27:56;9.53;;;6.67;;
16522;SDS011;19889;52.546;13.348;2023-03-11T13:30:33;8.13;;;6.50;;
16522;SDS011;19889;52.546;13.348;2023-03-11T13:33:13;9.60;;;7.13;;
16522;SDS011;19889;52.546;13.348;2023-03-11T13:35:53;7.80;;;6.30;;
16522;SDS011;19889;52.546;13.348;2023-03-11T13:38:38;8.90;;;6.10;;
16522;SDS011;19889;52.546;13.348;2023-03-11T13:41:26;7.57;;;6.30;;
16522;SDS011;19889;52.546;13.348;2023-03-11T13:43:58;7.80;;;6.23;;
16522;SDS011;19889;52.546;13.348;2023-03-11T13:46:32;8.43;;;6.03;;
16522;SDS011;19889;52.546;13.348;2023-03-11T13:49:04;7.43;;;5.80;;
16522;SDS011;19889;52.546;13.348;2023-03-11T13:51:36;6.50;;;5.03;;
16522;SDS011;19889;52.546;13.348;2023-03-11T13:54:13;9.17;;;6.37;;
16522;SDS011;19889;52.546;13.348;2023-03-11T13:56:50;7.47;;;5.97;;
16522;SDS011;19889;52.546;13.348;2023-03-11T13:59:21;6.37;;;5.17;;
16522;SDS011;19889;52.546;13.348;2023-03-11T14:01:52;8.37;;;5.83;;
16522;SDS011;19889;52.546;13.348;2023-03-11T14:04:22;8.87;;;5.80;;
16522;SDS011;19889;52.546;13.348;2023-03-11T14:06:52;7.63;;;5.77;;
16522;SDS011;19889;52.546;13.348;2023-03-11T14:09:20;7.77;;;6.67;;
16522;SDS011;19889;52.546;13.348;2023-03-11T14:11:49;8.90;;;5.87;;
16522;SDS011;19889;52.546;13.348;2023-03-11T14:14:24;10.03;;;6.27;;
16522;SDS011;19889;52.546;13.348;2023-03-11T14:16:58;6.97;;;5.30;;
16522;SDS011;19889;52.546;13.348;2023-03-11T14:19:28;6.93;;;5.10;;
16522;SDS011;19889;52.546;13.348;2023-03-11T14:21:55;8.97;;;5.50;;
16522;SDS011;19889;52.546;13.348;2023-03-11T14:24:22;8.20;;;5.77;;
16522;SDS011;19889;52.546;13.348;2023-03-11T14:26:51;8.37;;;5.00;;
16522;SDS011;19889;52.546;13.348;2023-03-11T14:29:22;5.73;;;4.90;;
16522;SDS011;19889;52.546;13.348;2023-03-11T14:31:54;5.70;;;4.33;;
16522;SDS011;19889;52.546;13.348;2023-03-11T14:34:23;6.73;;;4.67;;
16522;SDS011;19889;52.546;13.348;2023-03-11T14:36:56;6.67;;;4.70;;
16522;SDS011;19889;52.546;13.348;2023-03-11T14:39:43;5.57;;;4.33;;
16522;SDS011;19889;52.546;13.348;2023-03-11T14:42:17;10.57;;;4.80;;
16522;SDS011;19889;52.546;13.348;2023-03-11T14:44:51;7.97;;;4.90;;
16522;SDS011;19889;52.546;13.348;2023-03-11T14:47:29;5.83;;;4.60;;
16522;SDS011;19889;52.546;13.348;2023-03-11T14:50:02;5.13;;;4.50;;
16522;SDS011;19889;52.546;13.348;2023-03-11T14:52:33;6.40;;;4.33;;
16522;SDS011;19889;52.546;13.348;2023-03-11T14:55:04;8.00;;;4.10;;
16522;SDS011;19889;52.546;13.348;2023-03-11T14:57:35;6.63;;;4.63;;
16522;SDS011;19889;52.546;13.348;2023-03-11T15:00:04;7.30;;;4.20;;
16522;SDS011;19889;52.546;13.348;2023-03-11T15:02:39;3.83;;;3.40;;
16522;SDS011;19889;52.546;13.348;2023-03-11T15:05:10;4.77;;;3.07;;
16522;SDS011;19889;52.546;13.348;2023-03-11T15:07:41;8.10;;;4.90;;
16522;SDS011;19889;52.546;13.348;2023-03-11T15:10:10;6.43;;;4.20;;
16522;SDS011;19889;52.546;13.348;2023-03-11T15:12:39;5.63;;;4.10;;
16522;SDS011;19889;52.546;13.348;2023-03-11T15:15:21;4.57;;;3.90;;